Impacts METAR Board
IDs:

KCLT - Charlotte/Douglas In, NC, US

Updated at: 0800 UTC 16 Oct 2018
Potential Impact None Slight Moderate High
Time 15/20Z 15/21Z 15/22Z 15/23Z 16/00Z 16/01Z 16/02Z 16/03Z 16/04Z 16/05Z 16/06Z 16/07Z 16/08Z
Temp81 80 78 75 72 71 70 69 69 67 65 66 67
Dewpt66 64 65 65 66 66 67 66 67 66 65 66 66
Altim30.13 30.12 30.12 30.12 30.12 30.12 30.14 30.14 30.13 30.12 30.10 30.11 30.10
VIS10 10 10 10 10 10 10 10 10 10 8 8 9
CIG-- -- -- -- -- -- -- -- -- -- -- 39 --
CoverSCTSCTFEWCLRFEWFEWFEWFEWFEWCLRCLRBKNCLR
FltCatVFRVFRVFRVFRVFRVFRVFRVFRVFRVFRVFRVFRVFR
WX--------------------------
WDir21022021019019020001700017000
WSpd10 8 7 7 6 3 0 5 0 0 3 0 0
WGst-- -- -- -- -- -- -- -- -- -- -- -- --
Raw hourly METARs
KCLT 151952Z 21010KT 10SM SCT035 27/19 A3013 RMK AO2 SLP195 T02720189
KCLT 152052Z 22008KT 10SM SCT034 27/18 A3012 RMK AO2 SLP194 T02670178 56012
KCLT 152152Z 21007KT 10SM FEW036 FEW150 26/18 A3012 RMK AO2 SLP195 T02560183
KCLT 152252Z 19007KT 10SM CLR 24/18 A3012 RMK AO2 SLP193 T02390183
KCLT 152352Z 19006KT 10SM FEW150 22/19 A3012 RMK AO2 SLP194 T02220189 10272 20222 55000
KCLT 160052Z 20003KT 10SM FEW150 22/19 A3012 RMK AO2 SLP195 T02170189
KCLT 160152Z 00000KT 10SM FEW065 FEW150 21/19 A3014 RMK AO2 SLP199 T02110194
KCLT 160252Z 17005KT 10SM FEW070 FEW150 21/19 A3014 RMK AO2 SLP199 T02060189 50005
KCLT 160352Z 00000KT 10SM FEW070 FEW150 21/19 A3013 RMK AO2 SLP196 T02060194
KCLT 160452Z 00000KT 10SM CLR 19/19 A3012 RMK AO2 SLP193 T01940189 402720139
KCLT 160552Z 17003KT 8SM CLR 18/18 A3010 RMK AO2 SLP185 T01830183 10222 20178 58012
KCLT 160652Z 00000KT 8SM BKN039 19/19 A3011 RMK AO2 SLP187 T01890189
KCLT 160752Z 00000KT 9SM CLR 19/19 A3010 RMK AO2 SLP184 T01940189



Page loaded:  08:45 UTC  |   01:45 AM Pacific  |   02:45 AM Mountain  |   03:45 AM Central  |   04:45 AM Eastern

 

ADVISORIES

FORECASTS

FORECASTS

OBSERVATIONS

USER TOOLS

ABOUT US